createdAt,value
2023-03-16T00:00:17.656Z,1.30
2023-03-16T00:02:44.564Z,1.60
2023-03-16T00:05:13.009Z,2.10
2023-03-16T00:07:39.639Z,2.35
2023-03-16T00:10:07.100Z,2.15
2023-03-16T00:12:34.952Z,2.10
2023-03-16T00:15:02.118Z,2.78
2023-03-16T00:17:28.729Z,2.53
2023-03-16T00:19:57.327Z,2.38
2023-03-16T00:22:26.803Z,2.90
2023-03-16T00:24:54.379Z,2.60
2023-03-16T00:27:22.919Z,2.35
2023-03-16T00:29:56.531Z,2.08
2023-03-16T00:32:28.142Z,2.22
2023-03-16T00:34:54.984Z,1.90
2023-03-16T00:37:23.704Z,1.67
2023-03-16T00:39:51.369Z,2.28
2023-03-16T00:42:19.761Z,2.70
2023-03-16T00:44:46.520Z,5.85
2023-03-16T00:47:14.573Z,2.35
2023-03-16T00:49:43.331Z,2.80
2023-03-16T00:52:15.266Z,2.65
2023-03-16T00:54:43.847Z,2.95
2023-03-16T00:57:13.187Z,2.72
2023-03-16T00:59:39.997Z,2.92
2023-03-16T01:02:08.647Z,3.10
2023-03-16T01:04:36.000Z,3.90
2023-03-16T01:07:07.103Z,5.60
2023-03-16T01:09:37.026Z,2.50
2023-03-16T01:12:10.664Z,4.38
2023-03-16T01:14:37.873Z,3.10
2023-03-16T01:17:08.632Z,3.10
2023-03-16T01:19:37.249Z,2.55
2023-03-16T01:22:06.680Z,3.83
2023-03-16T01:24:34.794Z,2.90
2023-03-16T01:27:02.273Z,4.80
2023-03-16T01:29:29.947Z,2.80
2023-03-16T01:31:56.528Z,3.38
2023-03-16T01:34:23.332Z,2.50
2023-03-16T01:36:50.977Z,3.00
2023-03-16T01:39:18.178Z,3.03
2023-03-16T01:41:46.966Z,2.40
2023-03-16T01:44:17.148Z,2.22
2023-03-16T01:46:44.471Z,3.33
2023-03-16T01:49:21.478Z,2.45
2023-03-16T01:52:01.094Z,3.03
2023-03-16T01:54:44.809Z,3.10
2023-03-16T01:57:17.336Z,2.78
2023-03-16T01:59:55.035Z,3.05
2023-03-16T02:02:25.481Z,2.78
2023-03-16T02:05:12.572Z,2.47
2023-03-16T02:07:47.753Z,2.58
2023-03-16T02:10:17.114Z,3.47
2023-03-16T02:12:44.634Z,2.40
2023-03-16T02:15:14.325Z,2.78
2023-03-16T02:17:44.000Z,4.73
2023-03-16T02:23:33.873Z,3.83
2023-03-16T02:26:12.096Z,3.80
2023-03-16T02:28:48.282Z,2.40
2023-03-16T02:31:17.275Z,2.33
2023-03-16T02:33:47.769Z,5.15
2023-03-16T02:36:15.205Z,3.53
2023-03-16T02:38:42.012Z,3.22
2023-03-16T02:41:19.843Z,3.63
2023-03-16T02:44:10.902Z,3.03
2023-03-16T02:46:38.584Z,3.50
2023-03-16T02:49:16.407Z,3.28
2023-03-16T02:51:44.715Z,2.78
2023-03-16T02:54:11.435Z,2.90
2023-03-16T02:56:38.012Z,2.80
2023-03-16T02:59:04.861Z,2.95
2023-03-16T03:01:32.567Z,2.47
2023-03-16T03:03:59.163Z,2.70
2023-03-16T03:06:25.731Z,3.10
2023-03-16T03:08:52.407Z,2.53
2023-03-16T03:11:19.884Z,3.00
2023-03-16T03:13:47.757Z,4.78
2023-03-16T03:16:14.575Z,3.00
2023-03-16T03:18:41.373Z,2.25
2023-03-16T03:21:07.913Z,3.40
2023-03-16T03:23:37.688Z,3.20
2023-03-16T03:26:05.646Z,2.58
2023-03-16T03:28:34.280Z,2.58
2023-03-16T03:31:03.382Z,3.47
2023-03-16T03:33:30.196Z,2.87
2023-03-16T03:35:58.790Z,2.58
2023-03-16T03:38:26.474Z,4.00
2023-03-16T03:43:48.497Z,2.95
2023-03-16T03:46:15.159Z,2.57
2023-03-16T03:48:42.015Z,3.70
2023-03-16T03:51:40.363Z,2.58
2023-03-16T03:54:07.839Z,3.20
2023-03-16T03:56:34.418Z,2.40
2023-03-16T03:59:00.926Z,3.10
2023-03-16T04:01:27.504Z,3.35
2023-03-16T04:03:53.938Z,3.47
2023-03-16T04:06:20.548Z,3.75
2023-03-16T04:08:47.010Z,3.55
2023-03-16T04:11:13.592Z,3.30
2023-03-16T04:13:40.192Z,3.20
2023-03-16T04:16:07.001Z,2.90
2023-03-16T04:18:38.672Z,2.90
2023-03-16T04:21:06.700Z,2.85
2023-03-16T04:23:34.817Z,3.63
2023-03-16T04:26:02.207Z,3.10
2023-03-16T04:28:28.755Z,3.78
2023-03-16T04:30:55.842Z,3.38
2023-03-16T04:33:23.051Z,3.75
2023-03-16T04:35:50.143Z,4.07
2023-03-16T04:38:16.841Z,4.35
2023-03-16T04:40:43.408Z,3.55
2023-03-16T04:43:09.935Z,3.53
2023-03-16T04:45:36.563Z,2.85
2023-03-16T04:48:03.371Z,2.50
2023-03-16T04:50:30.394Z,2.30
2023-03-16T04:52:57.187Z,2.97
2023-03-16T04:55:24.033Z,2.90
2023-03-16T04:57:51.162Z,3.30
2023-03-16T05:00:21.074Z,2.63
2023-03-16T05:02:48.436Z,2.92
2023-03-16T05:05:15.718Z,2.67
2023-03-16T05:07:43.046Z,2.38
2023-03-16T05:10:13.044Z,2.88
2023-03-16T05:12:39.824Z,2.47
2023-03-16T05:15:07.024Z,3.60
2023-03-16T05:17:34.744Z,2.35
2023-03-16T05:20:01.264Z,3.55
2023-03-16T05:22:27.796Z,3.60
2023-03-16T05:24:54.551Z,3.07
2023-03-16T05:27:21.131Z,2.60
2023-03-16T05:29:48.275Z,2.47
2023-03-16T05:32:14.862Z,2.75
2023-03-16T05:34:43.248Z,2.65
2023-03-16T05:37:10.746Z,2.20
2023-03-16T05:39:37.966Z,2.17
2023-03-16T05:42:05.952Z,2.40
2023-03-16T05:44:33.835Z,2.80
2023-03-16T05:47:00.537Z,2.70
2023-03-16T05:49:27.478Z,2.43
2023-03-16T05:51:54.667Z,1.67
2023-03-16T05:54:21.209Z,1.75
2023-03-16T05:56:47.733Z,2.10
2023-03-16T05:59:14.287Z,2.03
2023-03-16T06:01:40.898Z,1.97
2023-03-16T06:04:07.529Z,2.20
2023-03-16T06:06:34.183Z,2.20
2023-03-16T06:09:01.290Z,2.20
2023-03-16T06:11:28.138Z,2.00
2023-03-16T06:13:57.854Z,2.13
2023-03-16T06:16:24.745Z,2.55
2023-03-16T06:18:51.501Z,2.50
2023-03-16T06:21:18.081Z,2.20
2023-03-16T06:23:44.953Z,2.20
2023-03-16T06:29:06.383Z,2.20
2023-03-16T06:31:34.095Z,2.22
2023-03-16T06:34:01.198Z,2.53
2023-03-16T06:36:27.853Z,2.22
2023-03-16T06:38:54.407Z,2.10
2023-03-16T06:41:21.290Z,2.60
2023-03-16T06:43:48.143Z,1.92
2023-03-16T06:46:14.971Z,1.98
2023-03-16T06:48:41.977Z,2.47
2023-03-16T06:51:09.114Z,1.87
2023-03-16T06:53:35.752Z,2.05
2023-03-16T06:56:02.506Z,2.00
2023-03-16T06:58:29.168Z,1.80
2023-03-16T07:00:56.051Z,1.90
2023-03-16T07:03:22.756Z,1.50
2023-03-16T07:05:49.444Z,2.00
2023-03-16T07:08:16.209Z,1.77
2023-03-16T07:13:37.195Z,1.58
2023-03-16T07:16:04.934Z,1.90
2023-03-16T07:18:32.078Z,1.85
2023-03-16T07:23:53.351Z,1.88
2023-03-16T07:26:19.845Z,1.60
2023-03-16T07:28:46.404Z,1.83
2023-03-16T07:31:14.689Z,1.85
2023-03-16T07:33:41.246Z,2.13
2023-03-16T07:36:10.619Z,2.25
2023-03-16T07:38:37.439Z,1.85
2023-03-16T07:41:04.118Z,2.10
2023-03-16T07:43:30.753Z,2.05
2023-03-16T07:45:57.449Z,1.90
2023-03-16T07:48:24.210Z,1.92
2023-03-16T07:50:51.290Z,1.80
2023-03-16T07:53:18.538Z,1.93
2023-03-16T07:55:45.347Z,1.88
2023-03-16T07:58:12.629Z,2.28
2023-03-16T08:00:40.067Z,1.33
2023-03-16T08:03:07.039Z,2.35
2023-03-16T08:05:34.105Z,2.30
2023-03-16T08:08:03.771Z,1.58
2023-03-16T08:10:31.638Z,1.63
2023-03-16T08:12:58.715Z,2.25
2023-03-16T08:15:25.568Z,2.20
2023-03-16T08:17:52.837Z,1.63
2023-03-16T08:20:19.874Z,1.92
2023-03-16T08:22:46.948Z,1.75
2023-03-16T08:25:14.707Z,1.50
2023-03-16T08:27:43.204Z,1.25
2023-03-16T08:30:11.995Z,1.90
2023-03-16T08:32:41.201Z,1.88
2023-03-16T08:35:10.879Z,1.52
2023-03-16T08:37:37.474Z,1.58
2023-03-16T08:40:06.646Z,1.90
2023-03-16T08:42:33.175Z,1.90
2023-03-16T08:45:01.148Z,1.52
2023-03-16T08:47:27.667Z,1.63
2023-03-16T08:49:54.230Z,2.03
2023-03-16T08:52:22.752Z,2.08
2023-03-16T08:55:02.379Z,1.60
2023-03-16T08:57:35.949Z,2.40
2023-03-16T09:00:13.326Z,2.08
2023-03-16T09:02:41.844Z,2.10
2023-03-16T09:05:12.707Z,2.38
2023-03-16T09:07:39.729Z,2.00
2023-03-16T09:10:08.057Z,2.78
2023-03-16T09:12:38.314Z,2.08
2023-03-16T09:15:06.103Z,1.77
2023-03-16T09:17:33.538Z,2.50
2023-03-16T09:20:21.144Z,1.63
2023-03-16T09:22:49.005Z,1.63
2023-03-16T09:25:16.130Z,1.85
2023-03-16T09:27:42.951Z,1.60
2023-03-16T09:30:10.469Z,1.38
2023-03-16T09:32:37.563Z,2.10
2023-03-16T09:35:06.318Z,3.25
2023-03-16T09:37:44.758Z,1.75
2023-03-16T09:40:27.022Z,2.22
2023-03-16T09:43:29.827Z,2.17
2023-03-16T09:49:02.474Z,1.77
2023-03-16T09:52:10.181Z,1.50
2023-03-16T09:54:54.191Z,1.75
2023-03-16T09:57:29.171Z,2.40
2023-03-16T10:00:10.774Z,1.77
2023-03-16T10:06:09.510Z,2.10
2023-03-16T10:08:40.918Z,1.50
2023-03-16T10:11:41.729Z,1.70
2023-03-16T10:14:45.682Z,1.30
2023-03-16T10:17:18.882Z,1.52
2023-03-16T10:20:01.481Z,1.58
2023-03-16T10:22:33.908Z,1.63
2023-03-16T10:25:25.794Z,1.88
2023-03-16T10:27:53.131Z,1.30
2023-03-16T10:30:29.091Z,1.60
2023-03-16T10:33:00.505Z,1.40
2023-03-16T10:38:46.969Z,1.60
2023-03-16T10:41:34.640Z,1.20
2023-03-16T10:44:30.936Z,1.80
2023-03-16T10:47:05.404Z,1.50
2023-03-16T10:49:44.357Z,1.30
2023-03-16T10:52:38.255Z,1.25
2023-03-16T10:55:12.286Z,1.53
2023-03-16T10:57:43.771Z,1.15
2023-03-16T11:00:25.106Z,1.30
2023-03-16T11:02:57.174Z,1.60
2023-03-16T11:08:27.787Z,1.00
2023-03-16T11:10:58.216Z,1.55
2023-03-16T11:13:34.226Z,1.20
2023-03-16T11:16:24.352Z,1.30
2023-03-16T11:18:56.608Z,1.13
2023-03-16T11:21:55.257Z,0.80
2023-03-16T11:24:49.029Z,1.40
2023-03-16T11:27:26.403Z,1.52
2023-03-16T11:30:21.835Z,1.08
2023-03-16T11:32:54.386Z,1.42
2023-03-16T11:35:35.288Z,1.57
2023-03-16T11:38:27.627Z,1.10
2023-03-16T11:41:00.408Z,1.35
2023-03-16T11:43:56.189Z,1.60
2023-03-16T11:49:53.781Z,1.87
2023-03-16T11:56:22.496Z,2.22
2023-03-16T11:59:00.179Z,0.90
2023-03-16T12:02:00.212Z,1.30
2023-03-16T12:04:29.501Z,1.67
2023-03-16T12:07:32.125Z,1.52
2023-03-16T12:10:24.155Z,1.80
2023-03-16T12:13:02.840Z,1.15
2023-03-16T12:15:39.918Z,0.98
2023-03-16T12:18:17.568Z,1.57
2023-03-16T12:20:51.171Z,1.08
2023-03-16T12:23:23.786Z,1.20
2023-03-16T12:25:54.260Z,2.05
2023-03-16T12:28:24.052Z,1.95
2023-03-16T12:30:59.208Z,1.30
2023-03-16T12:33:58.308Z,1.70
2023-03-16T12:36:50.197Z,1.20
2023-03-16T12:39:58.083Z,1.02
2023-03-16T12:43:08.843Z,1.15
2023-03-16T12:46:05.638Z,0.93
2023-03-16T12:48:37.145Z,0.98
2023-03-16T12:51:05.612Z,0.90
2023-03-16T12:53:45.861Z,1.30
2023-03-16T12:56:17.724Z,1.08
2023-03-16T12:58:48.611Z,0.67
2023-03-16T13:01:18.984Z,0.90
2023-03-16T13:03:50.802Z,1.00
2023-03-16T13:06:21.857Z,1.40
2023-03-16T13:08:55.659Z,1.05
2023-03-16T13:11:22.302Z,0.80
2023-03-16T13:14:05.928Z,0.70
2023-03-16T13:16:36.567Z,0.65
2023-03-16T13:19:25.085Z,0.75
2023-03-16T13:22:26.316Z,1.10
2023-03-16T13:25:00.776Z,1.00
2023-03-16T13:27:34.282Z,0.90
2023-03-16T13:30:15.874Z,1.00
2023-03-16T13:32:42.669Z,1.10
2023-03-16T13:35:15.607Z,1.15
2023-03-16T13:37:44.320Z,1.20
2023-03-16T13:40:24.715Z,0.60
2023-03-16T13:42:53.384Z,0.77
2023-03-16T13:45:31.782Z,0.68
2023-03-16T13:48:00.391Z,1.08
2023-03-16T13:50:27.305Z,0.83
2023-03-16T13:53:02.925Z,0.70
2023-03-16T13:55:33.927Z,0.80
2023-03-16T13:58:02.111Z,0.70
2023-03-16T14:00:34.751Z,0.73
2023-03-16T14:03:14.544Z,0.50
2023-03-16T14:08:35.925Z,0.70
2023-03-16T14:13:59.471Z,0.60
2023-03-16T14:16:28.939Z,0.50
2023-03-16T14:19:01.794Z,0.70
2023-03-16T14:21:31.160Z,0.75
2023-03-16T14:24:00.328Z,0.50
2023-03-16T14:26:34.656Z,0.50
2023-03-16T14:29:30.681Z,0.77
2023-03-16T14:32:00.465Z,0.90
2023-03-16T14:34:39.954Z,0.70
2023-03-16T14:37:07.768Z,0.57
2023-03-16T14:39:34.712Z,0.80
2023-03-16T14:42:06.837Z,1.00
2023-03-16T14:44:36.938Z,0.73
2023-03-16T14:47:06.146Z,1.20
2023-03-16T14:49:37.408Z,0.70
2023-03-16T14:52:24.160Z,0.70
2023-03-16T14:54:52.577Z,0.97
2023-03-16T14:57:19.628Z,0.90
2023-03-16T14:59:46.814Z,0.63
2023-03-16T15:02:27.098Z,0.68
2023-03-16T15:04:54.843Z,1.02
2023-03-16T15:07:32.692Z,0.50
2023-03-16T15:10:22.285Z,0.75
2023-03-16T15:12:54.721Z,0.55
2023-03-16T15:15:24.220Z,1.23
2023-03-16T15:17:52.949Z,0.73
2023-03-16T15:20:25.865Z,0.67
2023-03-16T15:22:53.520Z,0.70
2023-03-16T15:25:26.432Z,0.70
2023-03-16T15:27:55.375Z,0.60
2023-03-16T15:30:25.754Z,1.05
2023-03-16T15:32:53.386Z,0.60
2023-03-16T15:35:20.853Z,0.80
2023-03-16T15:37:48.171Z,0.88
2023-03-16T15:40:18.911Z,0.50
2023-03-16T15:42:48.924Z,0.98
2023-03-16T15:45:19.177Z,0.63
2023-03-16T15:47:50.511Z,0.50
2023-03-16T15:50:21.083Z,0.65
2023-03-16T15:52:53.409Z,0.90
2023-03-16T15:55:23.678Z,0.43
2023-03-16T15:57:59.067Z,0.40
2023-03-16T16:00:38.041Z,0.75
2023-03-16T16:03:06.785Z,0.70
2023-03-16T16:05:34.050Z,0.88
2023-03-16T16:08:00.800Z,0.80
2023-03-16T16:10:28.704Z,0.57
2023-03-16T16:12:56.843Z,0.70
2023-03-16T16:15:29.889Z,0.60
2023-03-16T16:18:20.025Z,0.60
2023-03-16T16:20:44.726Z,0.68
2023-03-16T16:23:11.572Z,0.60
2023-03-16T16:25:41.773Z,0.80
2023-03-16T16:28:19.808Z,0.70
2023-03-16T16:30:47.532Z,0.98
2023-03-16T16:33:31.979Z,0.80
2023-03-16T16:36:02.705Z,0.60
2023-03-16T16:38:34.451Z,0.98
2023-03-16T16:41:12.520Z,0.75
2023-03-16T16:43:43.684Z,0.80
2023-03-16T16:46:21.857Z,0.75
2023-03-16T16:48:51.536Z,1.00
2023-03-16T16:51:26.941Z,0.77
2023-03-16T16:53:55.967Z,1.42
2023-03-16T16:56:31.920Z,0.90
2023-03-16T16:59:01.437Z,1.10
2023-03-16T17:01:33.069Z,1.10
2023-03-16T17:03:59.791Z,0.90
2023-03-16T17:06:27.866Z,1.17
2023-03-16T17:08:55.459Z,1.10
2023-03-16T17:11:29.164Z,1.10
2023-03-16T17:13:59.524Z,1.37
2023-03-16T17:16:27.798Z,1.27
2023-03-16T17:18:55.458Z,1.60
2023-03-16T17:21:24.110Z,1.20
2023-03-16T17:23:52.879Z,1.17
2023-03-16T17:26:28.263Z,1.10
2023-03-16T17:29:02.443Z,1.00
2023-03-16T17:31:36.818Z,1.30
2023-03-16T17:34:16.514Z,0.90
2023-03-16T17:36:43.690Z,1.17
2023-03-16T17:39:24.214Z,0.97
2023-03-16T17:41:57.690Z,0.88
2023-03-16T17:44:25.608Z,0.98
2023-03-16T17:46:53.236Z,0.50
2023-03-16T17:49:20.730Z,0.93
2023-03-16T17:51:47.977Z,0.70
2023-03-16T17:54:14.620Z,0.90
2023-03-16T17:56:41.843Z,0.85
2023-03-16T17:59:17.610Z,0.88
2023-03-16T18:01:46.337Z,0.90
2023-03-16T18:04:22.023Z,0.70
2023-03-16T18:06:49.737Z,1.20
2023-03-16T18:09:18.308Z,1.50
2023-03-16T18:11:48.552Z,1.95
2023-03-16T18:14:37.196Z,2.08
2023-03-16T18:17:15.831Z,1.07
2023-03-16T18:19:43.651Z,0.73
2023-03-16T18:25:33.136Z,0.90
2023-03-16T18:28:00.280Z,1.30
2023-03-16T18:30:28.083Z,1.30
2023-03-16T18:32:55.809Z,1.38
2023-03-16T18:35:22.838Z,1.23
2023-03-16T18:37:49.651Z,1.30
2023-03-16T18:40:19.007Z,1.13
2023-03-16T18:42:46.622Z,1.80
2023-03-16T18:45:16.421Z,2.40
2023-03-16T18:47:49.576Z,1.70
2023-03-16T18:50:21.450Z,1.98
2023-03-16T18:52:48.790Z,1.80
2023-03-16T18:55:18.912Z,1.80
2023-03-16T18:57:50.316Z,1.85
2023-03-16T19:00:18.391Z,2.50
2023-03-16T19:02:49.102Z,2.03
2023-03-16T19:05:18.760Z,1.60
2023-03-16T19:07:50.138Z,1.53
2023-03-16T19:10:38.980Z,1.63
2023-03-16T19:13:17.077Z,1.75
2023-03-16T19:15:43.716Z,1.65
2023-03-16T19:18:10.657Z,1.08
2023-03-16T19:20:37.970Z,2.03
2023-03-16T19:23:07.510Z,1.35
2023-03-16T19:25:39.901Z,1.65
2023-03-16T19:28:11.050Z,0.82
2023-03-16T19:30:38.555Z,1.10
2023-03-16T19:33:19.752Z,0.80
2023-03-16T19:35:51.923Z,1.00
2023-03-16T19:38:19.602Z,0.90
2023-03-16T19:40:49.044Z,1.00
2023-03-16T19:43:18.471Z,0.80
2023-03-16T19:45:46.906Z,0.60
2023-03-16T19:48:16.979Z,0.77
2023-03-16T19:50:43.850Z,0.60
2023-03-16T19:53:17.544Z,0.60
2023-03-16T19:55:47.429Z,0.70
2023-03-16T19:58:21.290Z,0.97
2023-03-16T20:00:48.163Z,0.80
2023-03-16T20:03:14.836Z,1.10
2023-03-16T20:05:41.509Z,0.93
2023-03-16T20:08:27.605Z,1.00
2023-03-16T20:11:02.344Z,0.93
2023-03-16T20:13:30.889Z,0.65
2023-03-16T20:15:57.583Z,0.80
2023-03-16T20:18:24.317Z,0.65
2023-03-16T20:23:45.862Z,1.00
2023-03-16T20:26:24.599Z,0.80
2023-03-16T20:28:52.148Z,0.80
2023-03-16T20:31:22.287Z,1.05
2023-03-16T20:33:52.046Z,0.70
2023-03-16T20:36:20.757Z,0.60
2023-03-16T20:38:48.155Z,0.80
2023-03-16T20:41:31.003Z,0.60
2023-03-16T20:44:00.143Z,1.00
2023-03-16T20:46:29.200Z,1.15
2023-03-16T20:48:56.171Z,0.70
2023-03-16T20:51:29.070Z,1.15
2023-03-16T20:53:55.602Z,1.13
2023-03-16T20:56:26.705Z,1.20
2023-03-16T20:58:56.034Z,0.80
2023-03-16T21:01:24.532Z,1.00
2023-03-16T21:03:55.343Z,0.90
2023-03-16T21:09:24.020Z,0.80
2023-03-16T21:14:45.049Z,0.57
2023-03-16T21:17:25.900Z,1.00
2023-03-16T21:19:53.065Z,0.90
2023-03-16T21:22:35.041Z,0.98
2023-03-16T21:25:01.624Z,0.98
2023-03-16T21:27:31.323Z,0.93
2023-03-16T21:30:02.937Z,1.10
2023-03-16T21:32:30.935Z,1.08
2023-03-16T21:34:57.960Z,1.30
2023-03-16T21:37:24.565Z,1.23
2023-03-16T21:39:54.711Z,1.10
2023-03-16T21:42:21.502Z,0.77
2023-03-16T21:44:48.313Z,1.05
2023-03-16T21:47:24.858Z,1.00
2023-03-16T21:49:52.135Z,0.80
2023-03-16T21:52:23.867Z,0.90
2023-03-16T21:54:52.965Z,0.70
2023-03-16T21:57:19.853Z,0.60
2023-03-16T21:59:47.042Z,0.70
2023-03-16T22:02:27.839Z,0.70
2023-03-16T22:04:56.886Z,0.80
2023-03-16T22:07:23.881Z,0.50
2023-03-16T22:09:50.583Z,0.70
2023-03-16T22:12:18.398Z,0.75
2023-03-16T22:14:45.368Z,0.90
2023-03-16T22:17:22.027Z,0.77
2023-03-16T22:19:48.750Z,1.27
2023-03-16T22:22:17.350Z,1.13
2023-03-16T22:24:44.140Z,0.60
2023-03-16T22:27:22.855Z,1.02
2023-03-16T22:29:51.355Z,0.60
2023-03-16T22:32:21.167Z,1.10
2023-03-16T22:34:52.449Z,0.80
2023-03-16T22:37:25.213Z,0.98
2023-03-16T22:39:53.152Z,0.75
2023-03-16T22:42:19.632Z,0.77
2023-03-16T22:44:46.130Z,1.30
2023-03-16T22:47:22.888Z,0.93
2023-03-16T22:49:49.684Z,1.00
2023-03-16T22:52:17.172Z,1.52
2023-03-16T22:54:44.851Z,1.23
2023-03-16T22:57:15.324Z,1.10
2023-03-16T22:59:43.792Z,0.65
2023-03-16T23:02:21.947Z,0.90
2023-03-16T23:04:48.530Z,1.08
2023-03-16T23:07:15.767Z,1.13
2023-03-16T23:09:42.419Z,1.30
2023-03-16T23:12:19.442Z,1.02
2023-03-16T23:14:46.081Z,0.90
2023-03-16T23:17:17.770Z,1.00
2023-03-16T23:19:44.926Z,1.13
2023-03-16T23:25:07.020Z,1.30
2023-03-16T23:27:33.538Z,1.20
2023-03-16T23:30:00.218Z,1.33
2023-03-16T23:32:26.941Z,1.00
2023-03-16T23:34:53.529Z,1.23
2023-03-16T23:37:20.053Z,1.20
2023-03-16T23:39:47.170Z,1.10
2023-03-16T23:42:13.792Z,1.70
2023-03-16T23:44:40.525Z,1.20
2023-03-16T23:47:07.274Z,1.30
2023-03-16T23:49:38.307Z,1.40
2023-03-16T23:52:05.439Z,1.30
2023-03-16T23:54:32.939Z,1.67
2023-03-16T23:56:59.578Z,2.10
2023-03-16T23:59:27.486Z,1.73
